logo
Search for airport 
image banner adimage banner adimage banner ad
image banner ad

WBGJ - Limbang

Located in Limbang, Malaysia

ICAO - WBGJ, IATA - LMN

Data provided by Airmate  

General information

Coordinates: N4°48'30" E115°0'34"
Elevation is 15 feet MSL.
 
View others Airports in Sarawak

Operational data

Special qualification required
Current time UTC:
Current local time:
Weather at : WBSB - Brunei / International ( 18 km )
METAR: WBSB 231830Z 15004KT 9999 FEW015 BKN280 27/25 Q1009 NOSIG
TAF: TAF WBSB 231700Z 2318/2500 23004KT 9999 FEW014 FEW015CB TEMPO 2320/2400 7000 -SHRA FEW004 BECMG 2404/2406 27010KT FEW015 FEW016CB
View NOTAMs / SUP AIP / TFR affecting this airport [VIEW]
Communications frequencies: [VIEW]

Runways:

RWY identifierQFULength (ft)Width (ft)SurfaceLDA (ft)
0437°492198ASP
22217°492198ASP

Airport contact information

Address: Limbang Malaysia

Satellite view of WBGJ